sensor_id;sensor_type;location;lat;lon;timestamp;temperature;humidity
46492;DHT22;32206;51.446;6.792;2022-09-03T00:01:32;20.40;99.90
46492;DHT22;32206;51.446;6.792;2022-09-03T00:04:11;20.40;99.90
46492;DHT22;32206;51.446;6.792;2022-09-03T00:06:46;20.40;99.90
46492;DHT22;32206;51.446;6.792;2022-09-03T00:09:30;20.30;99.90
46492;DHT22;32206;51.446;6.792;2022-09-03T00:12:10;20.30;99.90
46492;DHT22;32206;51.446;6.792;2022-09-03T00:14:50;20.30;99.90
46492;DHT22;32206;51.446;6.792;2022-09-03T00:17:34;20.30;99.90
46492;DHT22;32206;51.446;6.792;2022-09-03T00:20:05;20.20;99.90
46492;DHT22;32206;51.446;6.792;2022-09-03T00:22:59;20.20;99.90
46492;DHT22;32206;51.446;6.792;2022-09-03T00:25:50;20.20;99.90
46492;DHT22;32206;51.446;6.792;2022-09-03T00:28:23;20.20;99.90
46492;DHT22;32206;51.446;6.792;2022-09-03T00:30:55;20.10;99.90
46492;DHT22;32206;51.446;6.792;2022-09-03T00:33:27;20.10;99.90
46492;DHT22;32206;51.446;6.792;2022-09-03T00:37:07;20.10;99.90
46492;DHT22;32206;51.446;6.792;2022-09-03T00:39:12;20.10;99.90
46492;DHT22;32206;51.446;6.792;2022-09-03T00:47:33;20.00;99.90
46492;DHT22;32206;51.446;6.792;2022-09-03T01:01:01;19.80;99.90
46492;DHT22;32206;51.446;6.792;2022-09-03T01:06:17;19.80;99.90
46492;DHT22;32206;51.446;6.792;2022-09-03T01:12:22;19.70;99.90
46492;DHT22;32206;51.446;6.792;2022-09-03T01:15:07;19.60;99.90
46492;DHT22;32206;51.446;6.792;2022-09-03T01:20:39;19.50;99.90
46492;DHT22;32206;51.446;6.792;2022-09-03T01:37:22;19.10;99.90
46492;DHT22;32206;51.446;6.792;2022-09-03T01:40:18;19.10;99.90
46492;DHT22;32206;51.446;6.792;2022-09-03T01:50:57;18.90;99.90
46492;DHT22;32206;51.446;6.792;2022-09-03T02:01:52;18.70;99.90
46492;DHT22;32206;51.446;6.792;2022-09-03T02:04:23;18.60;99.90
46492;DHT22;32206;51.446;6.792;2022-09-03T02:06:50;18.60;99.90
46492;DHT22;32206;51.446;6.792;2022-09-03T02:09:17;18.60;99.90
46492;DHT22;32206;51.446;6.792;2022-09-03T02:11:48;18.50;99.90
46492;DHT22;32206;51.446;6.792;2022-09-03T02:14:15;18.50;99.90
46492;DHT22;32206;51.446;6.792;2022-09-03T02:16:41;18.50;99.90
46492;DHT22;32206;51.446;6.792;2022-09-03T02:19:13;18.40;99.90
46492;DHT22;32206;51.446;6.792;2022-09-03T02:21:49;18.40;99.90
46492;DHT22;32206;51.446;6.792;2022-09-03T02:24:16;18.40;99.90
46492;DHT22;32206;51.446;6.792;2022-09-03T02:26:42;18.30;99.90
46492;DHT22;32206;51.446;6.792;2022-09-03T02:29:07;18.30;99.90
46492;DHT22;32206;51.446;6.792;2022-09-03T02:31:33;18.20;99.90
46492;DHT22;32206;51.446;6.792;2022-09-03T02:33:59;18.20;99.90
46492;DHT22;32206;51.446;6.792;2022-09-03T02:36:28;18.20;99.90
46492;DHT22;32206;51.446;6.792;2022-09-03T02:38:54;18.20;99.90
46492;DHT22;32206;51.446;6.792;2022-09-03T02:41:20;18.20;99.90
46492;DHT22;32206;51.446;6.792;2022-09-03T02:43:51;18.10;99.90
46492;DHT22;32206;51.446;6.792;2022-09-03T02:46:23;18.10;99.90
46492;DHT22;32206;51.446;6.792;2022-09-03T02:48:52;18.10;99.90
46492;DHT22;32206;51.446;6.792;2022-09-03T02:51:18;18.00;99.90
46492;DHT22;32206;51.446;6.792;2022-09-03T02:53:44;18.00;99.90
46492;DHT22;32206;51.446;6.792;2022-09-03T02:56:10;18.00;99.90
46492;DHT22;32206;51.446;6.792;2022-09-03T02:58:36;17.90;99.90
46492;DHT22;32206;51.446;6.792;2022-09-03T03:01:02;17.90;99.90
46492;DHT22;32206;51.446;6.792;2022-09-03T03:03:28;17.90;99.90
46492;DHT22;32206;51.446;6.792;2022-09-03T03:05:56;17.80;99.90
46492;DHT22;32206;51.446;6.792;2022-09-03T03:08:25;17.80;99.90
46492;DHT22;32206;51.446;6.792;2022-09-03T03:10:52;17.80;99.90
46492;DHT22;32206;51.446;6.792;2022-09-03T03:13:18;17.80;99.90
46492;DHT22;32206;51.446;6.792;2022-09-03T03:15:44;17.80;99.90
46492;DHT22;32206;51.446;6.792;2022-09-03T03:18:12;17.70;99.90
46492;DHT22;32206;51.446;6.792;2022-09-03T03:20:39;17.70;99.90
46492;DHT22;32206;51.446;6.792;2022-09-03T03:23:06;17.70;99.90
46492;DHT22;32206;51.446;6.792;2022-09-03T03:25:34;17.70;99.90
46492;DHT22;32206;51.446;6.792;2022-09-03T03:28:00;17.70;99.90
46492;DHT22;32206;51.446;6.792;2022-09-03T03:30:26;17.70;99.90
46492;DHT22;32206;51.446;6.792;2022-09-03T03:32:52;17.60;99.90
46492;DHT22;32206;51.446;6.792;2022-09-03T03:35:19;17.60;99.90
46492;DHT22;32206;51.446;6.792;2022-09-03T03:37:44;17.60;99.90
46492;DHT22;32206;51.446;6.792;2022-09-03T03:40:10;17.60;99.90
46492;DHT22;32206;51.446;6.792;2022-09-03T03:42:36;17.60;99.90
46492;DHT22;32206;51.446;6.792;2022-09-03T03:45:03;17.70;99.90
46492;DHT22;32206;51.446;6.792;2022-09-03T03:47:29;17.60;99.90
46492;DHT22;32206;51.446;6.792;2022-09-03T03:49:56;17.50;99.90
46492;DHT22;32206;51.446;6.792;2022-09-03T03:52:22;17.50;99.90
46492;DHT22;32206;51.446;6.792;2022-09-03T03:54:49;17.50;99.90
46492;DHT22;32206;51.446;6.792;2022-09-03T03:57:15;17.40;99.90
46492;DHT22;32206;51.446;6.792;2022-09-03T03:59:40;17.40;99.90
46492;DHT22;32206;51.446;6.792;2022-09-03T04:02:06;17.40;99.90
46492;DHT22;32206;51.446;6.792;2022-09-03T04:04:32;17.50;99.90
46492;DHT22;32206;51.446;6.792;2022-09-03T04:06:57;17.40;99.90
46492;DHT22;32206;51.446;6.792;2022-09-03T04:09:23;17.40;99.90
46492;DHT22;32206;51.446;6.792;2022-09-03T04:11:48;17.40;99.90
46492;DHT22;32206;51.446;6.792;2022-09-03T04:14:15;17.40;99.90
46492;DHT22;32206;51.446;6.792;2022-09-03T04:16:42;17.40;99.90
46492;DHT22;32206;51.446;6.792;2022-09-03T04:19:11;17.40;99.90
46492;DHT22;32206;51.446;6.792;2022-09-03T04:21:37;17.40;99.90
46492;DHT22;32206;51.446;6.792;2022-09-03T04:24:04;17.40;99.90
46492;DHT22;32206;51.446;6.792;2022-09-03T04:26:31;17.40;99.90
46492;DHT22;32206;51.446;6.792;2022-09-03T04:29:07;17.40;99.90
46492;DHT22;32206;51.446;6.792;2022-09-03T04:31:34;17.40;99.90
46492;DHT22;32206;51.446;6.792;2022-09-03T04:34:00;17.30;99.90
46492;DHT22;32206;51.446;6.792;2022-09-03T04:36:28;17.30;99.90
46492;DHT22;32206;51.446;6.792;2022-09-03T04:38:54;17.30;99.90
46492;DHT22;32206;51.446;6.792;2022-09-03T04:41:24;17.40;99.90
46492;DHT22;32206;51.446;6.792;2022-09-03T04:43:52;17.20;99.90
46492;DHT22;32206;51.446;6.792;2022-09-03T04:46:19;17.20;99.90
46492;DHT22;32206;51.446;6.792;2022-09-03T04:48:52;17.10;99.90
46492;DHT22;32206;51.446;6.792;2022-09-03T04:51:23;17.00;99.90
46492;DHT22;32206;51.446;6.792;2022-09-03T04:53:58;17.00;99.90
46492;DHT22;32206;51.446;6.792;2022-09-03T04:56:35;16.90;99.90
46492;DHT22;32206;51.446;6.792;2022-09-03T04:59:02;16.90;99.90
46492;DHT22;32206;51.446;6.792;2022-09-03T05:01:29;16.80;99.90
46492;DHT22;32206;51.446;6.792;2022-09-03T05:03:56;16.80;99.90
46492;DHT22;32206;51.446;6.792;2022-09-03T05:06:23;16.80;99.90
46492;DHT22;32206;51.446;6.792;2022-09-03T05:08:50;16.90;99.90
46492;DHT22;32206;51.446;6.792;2022-09-03T05:11:18;16.80;99.90
46492;DHT22;32206;51.446;6.792;2022-09-03T05:13:47;16.80;99.90
46492;DHT22;32206;51.446;6.792;2022-09-03T05:16:13;16.80;99.90
46492;DHT22;32206;51.446;6.792;2022-09-03T05:18:39;16.80;99.90
46492;DHT22;32206;51.446;6.792;2022-09-03T05:21:09;16.70;99.90
46492;DHT22;32206;51.446;6.792;2022-09-03T05:23:37;16.70;99.90
46492;DHT22;32206;51.446;6.792;2022-09-03T05:26:05;16.70;99.90
46492;DHT22;32206;51.446;6.792;2022-09-03T05:28:36;16.70;99.90
46492;DHT22;32206;51.446;6.792;2022-09-03T05:31:04;16.60;99.90
46492;DHT22;32206;51.446;6.792;2022-09-03T05:33:42;16.70;99.90
46492;DHT22;32206;51.446;6.792;2022-09-03T05:36:10;16.70;99.90
46492;DHT22;32206;51.446;6.792;2022-09-03T05:38:36;16.70;99.90
46492;DHT22;32206;51.446;6.792;2022-09-03T05:41:06;16.70;99.90
46492;DHT22;32206;51.446;6.792;2022-09-03T05:43:33;16.70;99.90
46492;DHT22;32206;51.446;6.792;2022-09-03T05:46:00;16.70;99.90
46492;DHT22;32206;51.446;6.792;2022-09-03T05:48:29;16.80;99.90
46492;DHT22;32206;51.446;6.792;2022-09-03T05:51:00;16.80;99.90
46492;DHT22;32206;51.446;6.792;2022-09-03T05:53:27;16.90;99.90
46492;DHT22;32206;51.446;6.792;2022-09-03T05:55:57;16.90;99.90
46492;DHT22;32206;51.446;6.792;2022-09-03T05:58:23;16.70;99.90
46492;DHT22;32206;51.446;6.792;2022-09-03T06:00:50;17.00;99.90
46492;DHT22;32206;51.446;6.792;2022-09-03T06:03:16;17.00;99.90
46492;DHT22;32206;51.446;6.792;2022-09-03T06:05:49;17.10;99.90
46492;DHT22;32206;51.446;6.792;2022-09-03T06:08:16;17.20;99.90
46492;DHT22;32206;51.446;6.792;2022-09-03T06:10:41;17.20;99.90
46492;DHT22;32206;51.446;6.792;2022-09-03T06:13:07;17.20;99.90
46492;DHT22;32206;51.446;6.792;2022-09-03T06:15:32;17.30;99.90
46492;DHT22;32206;51.446;6.792;2022-09-03T06:17:58;17.30;99.90
46492;DHT22;32206;51.446;6.792;2022-09-03T06:20:24;17.40;99.90
46492;DHT22;32206;51.446;6.792;2022-09-03T06:22:52;17.70;99.90
46492;DHT22;32206;51.446;6.792;2022-09-03T06:25:18;17.50;99.90
46492;DHT22;32206;51.446;6.792;2022-09-03T06:27:44;17.50;99.90
46492;DHT22;32206;51.446;6.792;2022-09-03T06:30:10;17.60;99.90
46492;DHT22;32206;51.446;6.792;2022-09-03T06:32:43;17.60;99.90
46492;DHT22;32206;51.446;6.792;2022-09-03T06:35:12;17.50;99.90
46492;DHT22;32206;51.446;6.792;2022-09-03T06:37:47;17.70;99.90
46492;DHT22;32206;51.446;6.792;2022-09-03T06:40:19;17.70;99.90
46492;DHT22;32206;51.446;6.792;2022-09-03T06:42:55;17.80;99.90
46492;DHT22;32206;51.446;6.792;2022-09-03T06:45:25;17.80;99.90
46492;DHT22;32206;51.446;6.792;2022-09-03T06:47:50;17.90;99.90
46492;DHT22;32206;51.446;6.792;2022-09-03T06:50:16;18.00;99.90
46492;DHT22;32206;51.446;6.792;2022-09-03T06:52:42;18.00;99.90
46492;DHT22;32206;51.446;6.792;2022-09-03T06:55:08;18.10;99.90
46492;DHT22;32206;51.446;6.792;2022-09-03T06:57:34;18.10;99.90
46492;DHT22;32206;51.446;6.792;2022-09-03T06:59:59;18.20;99.90
46492;DHT22;32206;51.446;6.792;2022-09-03T07:02:26;18.20;99.90
46492;DHT22;32206;51.446;6.792;2022-09-03T07:04:52;18.30;99.90
46492;DHT22;32206;51.446;6.792;2022-09-03T07:07:18;18.30;99.90
46492;DHT22;32206;51.446;6.792;2022-09-03T07:09:43;18.30;99.90
46492;DHT22;32206;51.446;6.792;2022-09-03T07:12:09;18.40;99.90
46492;DHT22;32206;51.446;6.792;2022-09-03T07:14:36;18.50;99.90
46492;DHT22;32206;51.446;6.792;2022-09-03T07:17:02;18.50;99.90
46492;DHT22;32206;51.446;6.792;2022-09-03T07:19:27;18.60;99.90
46492;DHT22;32206;51.446;6.792;2022-09-03T07:21:53;18.70;99.90
46492;DHT22;32206;51.446;6.792;2022-09-03T07:24:19;18.70;99.90
46492;DHT22;32206;51.446;6.792;2022-09-03T07:26:46;18.80;99.90
46492;DHT22;32206;51.446;6.792;2022-09-03T07:29:13;18.80;99.90
46492;DHT22;32206;51.446;6.792;2022-09-03T07:31:42;18.90;99.90
46492;DHT22;32206;51.446;6.792;2022-09-03T07:34:09;19.00;99.90
46492;DHT22;32206;51.446;6.792;2022-09-03T07:36:41;19.10;99.90
46492;DHT22;32206;51.446;6.792;2022-09-03T07:39:08;19.20;99.90
46492;DHT22;32206;51.446;6.792;2022-09-03T07:41:34;19.20;99.90
46492;DHT22;32206;51.446;6.792;2022-09-03T07:44:00;19.30;99.90
46492;DHT22;32206;51.446;6.792;2022-09-03T07:46:32;19.30;99.90
46492;DHT22;32206;51.446;6.792;2022-09-03T07:48:59;19.40;99.90
46492;DHT22;32206;51.446;6.792;2022-09-03T07:51:29;19.70;99.90
46492;DHT22;32206;51.446;6.792;2022-09-03T07:53:56;19.50;99.90
46492;DHT22;32206;51.446;6.792;2022-09-03T07:56:24;19.60;99.90
46492;DHT22;32206;51.446;6.792;2022-09-03T07:58:50;19.70;99.90
46492;DHT22;32206;51.446;6.792;2022-09-03T08:01:18;19.80;99.90
46492;DHT22;32206;51.446;6.792;2022-09-03T08:03:46;19.80;99.90
46492;DHT22;32206;51.446;6.792;2022-09-03T08:06:13;19.90;99.90
46492;DHT22;32206;51.446;6.792;2022-09-03T08:08:39;19.90;99.90
46492;DHT22;32206;51.446;6.792;2022-09-03T08:11:13;20.00;99.90
46492;DHT22;32206;51.446;6.792;2022-09-03T08:13:40;20.10;99.90
46492;DHT22;32206;51.446;6.792;2022-09-03T08:16:09;20.20;99.90
46492;DHT22;32206;51.446;6.792;2022-09-03T08:18:36;20.30;99.90
46492;DHT22;32206;51.446;6.792;2022-09-03T08:21:08;20.40;99.90
46492;DHT22;32206;51.446;6.792;2022-09-03T08:23:38;20.50;99.90
46492;DHT22;32206;51.446;6.792;2022-09-03T08:26:05;20.60;99.90
46492;DHT22;32206;51.446;6.792;2022-09-03T08:28:31;20.70;99.90
46492;DHT22;32206;51.446;6.792;2022-09-03T08:31:08;20.80;99.90
46492;DHT22;32206;51.446;6.792;2022-09-03T08:33:41;21.00;99.90
46492;DHT22;32206;51.446;6.792;2022-09-03T08:36:15;21.10;99.90
46492;DHT22;32206;51.446;6.792;2022-09-03T08:38:43;21.30;99.90
46492;DHT22;32206;51.446;6.792;2022-09-03T08:41:18;21.50;99.90
46492;DHT22;32206;51.446;6.792;2022-09-03T08:44:29;21.50;99.90
46492;DHT22;32206;51.446;6.792;2022-09-03T08:50:02;21.70;99.90
46492;DHT22;32206;51.446;6.792;2022-09-03T08:54:41;22.00;99.90
46492;DHT22;32206;51.446;6.792;2022-09-03T08:57:08;22.10;99.90
46492;DHT22;32206;51.446;6.792;2022-09-03T08:59:34;22.10;99.90
46492;DHT22;32206;51.446;6.792;2022-09-03T09:02:14;22.30;99.90
46492;DHT22;32206;51.446;6.792;2022-09-03T09:05:11;22.40;99.90
46492;DHT22;32206;51.446;6.792;2022-09-03T09:10:33;22.70;99.90
46492;DHT22;32206;51.446;6.792;2022-09-03T09:21:26;22.80;99.90
46492;DHT22;32206;51.446;6.792;2022-09-03T09:24:06;22.80;99.90
46492;DHT22;32206;51.446;6.792;2022-09-03T09:26:39;23.00;99.90
46492;DHT22;32206;51.446;6.792;2022-09-03T09:29:08;23.10;99.90
46492;DHT22;32206;51.446;6.792;2022-09-03T09:31:37;23.20;99.90
46492;DHT22;32206;51.446;6.792;2022-09-03T09:34:05;23.30;99.90
46492;DHT22;32206;51.446;6.792;2022-09-03T09:36:41;23.30;99.90
46492;DHT22;32206;51.446;6.792;2022-09-03T09:39:09;23.40;99.90
46492;DHT22;32206;51.446;6.792;2022-09-03T09:41:35;23.50;99.90
46492;DHT22;32206;51.446;6.792;2022-09-03T09:44:02;23.50;99.90
46492;DHT22;32206;51.446;6.792;2022-09-03T09:46:39;23.60;99.90
46492;DHT22;32206;51.446;6.792;2022-09-03T09:49:31;23.60;99.90
46492;DHT22;32206;51.446;6.792;2022-09-03T09:52:09;23.70;99.90
46492;DHT22;32206;51.446;6.792;2022-09-03T09:54:38;23.80;99.90
46492;DHT22;32206;51.446;6.792;2022-09-03T09:57:06;23.90;99.90
46492;DHT22;32206;51.446;6.792;2022-09-03T09:59:33;23.90;99.90
46492;DHT22;32206;51.446;6.792;2022-09-03T10:02:25;23.80;99.90
46492;DHT22;32206;51.446;6.792;2022-09-03T10:04:52;23.90;99.90
46492;DHT22;32206;51.446;6.792;2022-09-03T10:07:24;23.90;99.90
46492;DHT22;32206;51.446;6.792;2022-09-03T10:10:20;23.90;99.90
46492;DHT22;32206;51.446;6.792;2022-09-03T10:15:32;24.10;99.90
46492;DHT22;32206;51.446;6.792;2022-09-03T10:20:58;24.40;99.90
46492;DHT22;32206;51.446;6.792;2022-09-03T10:23:40;24.40;99.90
46492;DHT22;32206;51.446;6.792;2022-09-03T10:26:17;24.60;99.90
46492;DHT22;32206;51.446;6.792;2022-09-03T10:28:50;24.70;99.90
46492;DHT22;32206;51.446;6.792;2022-09-03T10:36:46;25.10;99.90
46492;DHT22;32206;51.446;6.792;2022-09-03T10:39:22;25.10;99.90
46492;DHT22;32206;51.446;6.792;2022-09-03T10:41:57;25.20;99.90
46492;DHT22;32206;51.446;6.792;2022-09-03T10:44:37;25.20;99.90
46492;DHT22;32206;51.446;6.792;2022-09-03T11:00:12;25.70;99.90
46492;DHT22;32206;51.446;6.792;2022-09-03T11:05:38;25.90;99.90
46492;DHT22;32206;51.446;6.792;2022-09-03T11:09:04;26.00;99.90
46492;DHT22;32206;51.446;6.792;2022-09-03T11:11:19;26.00;99.90
46492;DHT22;32206;51.446;6.792;2022-09-03T11:13:58;26.10;99.90
46492;DHT22;32206;51.446;6.792;2022-09-03T11:16:32;26.20;99.90
46492;DHT22;32206;51.446;6.792;2022-09-03T11:19:10;26.20;99.90
46492;DHT22;32206;51.446;6.792;2022-09-03T11:21:38;26.30;99.90
46492;DHT22;32206;51.446;6.792;2022-09-03T11:24:13;26.30;99.90
46492;DHT22;32206;51.446;6.792;2022-09-03T11:26:43;26.30;99.90
46492;DHT22;32206;51.446;6.792;2022-09-03T11:29:43;26.20;99.90
46492;DHT22;32206;51.446;6.792;2022-09-03T11:32:21;26.30;99.90
46492;DHT22;32206;51.446;6.792;2022-09-03T11:34:53;26.30;99.90
46492;DHT22;32206;51.446;6.792;2022-09-03T11:37:24;26.30;99.90
46492;DHT22;32206;51.446;6.792;2022-09-03T11:42:36;26.60;99.90
46492;DHT22;32206;51.446;6.792;2022-09-03T11:47:43;26.80;99.90
46492;DHT22;32206;51.446;6.792;2022-09-03T11:50:32;26.90;99.90
46492;DHT22;32206;51.446;6.792;2022-09-03T11:55:54;27.20;99.90
46492;DHT22;32206;51.446;6.792;2022-09-03T11:58:32;27.20;99.90
46492;DHT22;32206;51.446;6.792;2022-09-03T12:01:02;27.30;99.90
46492;DHT22;32206;51.446;6.792;2022-09-03T12:06:48;27.30;99.90
46492;DHT22;32206;51.446;6.792;2022-09-03T12:15:08;27.60;99.90
46492;DHT22;32206;51.446;6.792;2022-09-03T12:17:52;27.70;99.90
46492;DHT22;32206;51.446;6.792;2022-09-03T12:20:39;27.80;99.90
46492;DHT22;32206;51.446;6.792;2022-09-03T12:23:05;27.90;99.90
46492;DHT22;32206;51.446;6.792;2022-09-03T12:25:32;28.00;99.90
46492;DHT22;32206;51.446;6.792;2022-09-03T12:28:00;28.20;99.90
46492;DHT22;32206;51.446;6.792;2022-09-03T12:30:29;28.30;99.90
46492;DHT22;32206;51.446;6.792;2022-09-03T12:33:07;28.40;99.90
46492;DHT22;32206;51.446;6.792;2022-09-03T12:35:35;28.50;99.90
46492;DHT22;32206;51.446;6.792;2022-09-03T12:38:00;28.60;99.90
46492;DHT22;32206;51.446;6.792;2022-09-03T12:40:28;28.70;99.90
46492;DHT22;32206;51.446;6.792;2022-09-03T12:42:55;28.60;99.90
46492;DHT22;32206;51.446;6.792;2022-09-03T12:45:45;28.40;99.90
46492;DHT22;32206;51.446;6.792;2022-09-03T12:48:14;28.40;99.90
46492;DHT22;32206;51.446;6.792;2022-09-03T12:50:41;28.50;99.90
46492;DHT22;32206;51.446;6.792;2022-09-03T12:53:09;28.50;99.90
46492;DHT22;32206;51.446;6.792;2022-09-03T12:58:34;28.50;99.90
46492;DHT22;32206;51.446;6.792;2022-09-03T13:01:17;28.60;99.90
46492;DHT22;32206;51.446;6.792;2022-09-03T13:03:54;28.60;99.90
46492;DHT22;32206;51.446;6.792;2022-09-03T13:06:28;28.70;99.90
46492;DHT22;32206;51.446;6.792;2022-09-03T13:09:02;28.70;99.90
46492;DHT22;32206;51.446;6.792;2022-09-03T13:11:32;28.70;99.90
46492;DHT22;32206;51.446;6.792;2022-09-03T13:24:39;28.50;99.90
46492;DHT22;32206;51.446;6.792;2022-09-03T13:27:30;28.50;99.90
46492;DHT22;32206;51.446;6.792;2022-09-03T13:30:12;28.30;99.90
46492;DHT22;32206;51.446;6.792;2022-09-03T13:38:26;27.70;99.90
46492;DHT22;32206;51.446;6.792;2022-09-03T13:43:36;27.90;99.90
46492;DHT22;32206;51.446;6.792;2022-09-03T13:46:37;28.00;99.90
46492;DHT22;32206;51.446;6.792;2022-09-03T13:49:34;27.80;99.90
46492;DHT22;32206;51.446;6.792;2022-09-03T13:52:40;27.80;99.90
46492;DHT22;32206;51.446;6.792;2022-09-03T13:55:54;27.80;99.90
46492;DHT22;32206;51.446;6.792;2022-09-03T13:58:17;27.80;99.90
46492;DHT22;32206;51.446;6.792;2022-09-03T14:00:53;27.90;99.90
46492;DHT22;32206;51.446;6.792;2022-09-03T14:03:33;27.90;99.90
46492;DHT22;32206;51.446;6.792;2022-09-03T14:25:01;28.10;99.90
46492;DHT22;32206;51.446;6.792;2022-09-03T14:27:29;28.10;99.90
46492;DHT22;32206;51.446;6.792;2022-09-03T14:30:00;28.10;99.90
46492;DHT22;32206;51.446;6.792;2022-09-03T14:32:30;28.10;99.90
46492;DHT22;32206;51.446;6.792;2022-09-03T14:35:18;28.10;99.90
46492;DHT22;32206;51.446;6.792;2022-09-03T14:40:47;28.30;99.90
46492;DHT22;32206;51.446;6.792;2022-09-03T14:51:48;28.50;99.90
46492;DHT22;32206;51.446;6.792;2022-09-03T15:00:08;28.70;99.90
46492;DHT22;32206;51.446;6.792;2022-09-03T15:11:31;29.00;99.90
46492;DHT22;32206;51.446;6.792;2022-09-03T15:16:55;29.20;99.90
46492;DHT22;32206;51.446;6.792;2022-09-03T15:19:47;29.20;99.90
46492;DHT22;32206;51.446;6.792;2022-09-03T15:22:36;29.20;99.90
46492;DHT22;32206;51.446;6.792;2022-09-03T15:27:58;29.40;99.90
46492;DHT22;32206;51.446;6.792;2022-09-03T15:30:38;29.60;99.90
46492;DHT22;32206;51.446;6.792;2022-09-03T15:34:13;29.80;99.90
46492;DHT22;32206;51.446;6.792;2022-09-03T15:36:16;29.90;99.90
46492;DHT22;32206;51.446;6.792;2022-09-03T15:44:00;30.60;99.90
46492;DHT22;32206;51.446;6.792;2022-09-03T15:46:36;31.00;99.90
46492;DHT22;32206;51.446;6.792;2022-09-03T16:00:56;32.10;99.90
46492;DHT22;32206;51.446;6.792;2022-09-03T16:03:52;32.20;99.90
46492;DHT22;32206;51.446;6.792;2022-09-03T16:06:49;31.90;99.90
46492;DHT22;32206;51.446;6.792;2022-09-03T16:10:03;31.60;99.90
46492;DHT22;32206;51.446;6.792;2022-09-03T16:12:25;31.30;99.90
46492;DHT22;32206;51.446;6.792;2022-09-03T16:17:36;30.80;99.90
46492;DHT22;32206;51.446;6.792;2022-09-03T16:20:45;30.60;99.90
46492;DHT22;32206;51.446;6.792;2022-09-03T16:26:49;30.10;99.90
46492;DHT22;32206;51.446;6.792;2022-09-03T16:29:14;30.00;99.90
46492;DHT22;32206;51.446;6.792;2022-09-03T16:34:30;29.80;99.90
46492;DHT22;32206;51.446;6.792;2022-09-03T16:37:04;29.80;99.90
46492;DHT22;32206;51.446;6.792;2022-09-03T16:50:37;29.50;99.90
46492;DHT22;32206;51.446;6.792;2022-09-03T17:03:56;29.40;99.90
46492;DHT22;32206;51.446;6.792;2022-09-03T17:09:44;29.30;99.90
46492;DHT22;32206;51.446;6.792;2022-09-03T17:12:22;29.00;99.90
46492;DHT22;32206;51.446;6.792;2022-09-03T17:17:42;28.80;99.90
46492;DHT22;32206;51.446;6.792;2022-09-03T17:26:09;28.20;99.90
46492;DHT22;32206;51.446;6.792;2022-09-03T17:29:44;28.00;99.90
46492;DHT22;32206;51.446;6.792;2022-09-03T17:46:09;26.80;99.90
46492;DHT22;32206;51.446;6.792;2022-09-03T17:53:52;26.30;99.90
46492;DHT22;32206;51.446;6.792;2022-09-03T17:58:54;25.90;99.90
46492;DHT22;32206;51.446;6.792;2022-09-03T18:01:27;25.80;99.90
46492;DHT22;32206;51.446;6.792;2022-09-03T18:06:58;25.60;99.90
46492;DHT22;32206;51.446;6.792;2022-09-03T18:09:34;25.30;99.90
46492;DHT22;32206;51.446;6.792;2022-09-03T18:12:12;25.10;99.90
46492;DHT22;32206;51.446;6.792;2022-09-03T18:14:55;25.10;99.90
46492;DHT22;32206;51.446;6.792;2022-09-03T18:17:53;25.10;99.90
46492;DHT22;32206;51.446;6.792;2022-09-03T18:20:24;25.20;99.90
46492;DHT22;32206;51.446;6.792;2022-09-03T18:23:17;25.20;99.90
46492;DHT22;32206;51.446;6.792;2022-09-03T18:26:08;25.10;99.90
46492;DHT22;32206;51.446;6.792;2022-09-03T18:29:02;25.00;99.90
46492;DHT22;32206;51.446;6.792;2022-09-03T18:31:46;24.90;99.90
46492;DHT22;32206;51.446;6.792;2022-09-03T18:34:33;24.90;99.90
46492;DHT22;32206;51.446;6.792;2022-09-03T18:37:22;24.90;99.90
46492;DHT22;32206;51.446;6.792;2022-09-03T18:40:09;24.80;99.90
46492;DHT22;32206;51.446;6.792;2022-09-03T18:46:17;24.70;99.90
46492;DHT22;32206;51.446;6.792;2022-09-03T18:49:35;24.60;99.90
46492;DHT22;32206;51.446;6.792;2022-09-03T18:52:41;24.50;99.90
46492;DHT22;32206;51.446;6.792;2022-09-03T19:01:41;24.30;99.90
46492;DHT22;32206;51.446;6.792;2022-09-03T19:07:45;23.90;99.90
46492;DHT22;32206;51.446;6.792;2022-09-03T19:10:50;23.90;99.90
46492;DHT22;32206;51.446;6.792;2022-09-03T19:13:37;23.80;99.90
46492;DHT22;32206;51.446;6.792;2022-09-03T19:16:47;23.70;99.90
46492;DHT22;32206;51.446;6.792;2022-09-03T19:22:40;23.60;1.00
46492;DHT22;32206;51.446;6.792;2022-09-03T19:25:26;23.60;1.00
46492;DHT22;32206;51.446;6.792;2022-09-03T19:28:20;23.50;1.00
46492;DHT22;32206;51.446;6.792;2022-09-03T19:37:05;23.30;1.00
46492;DHT22;32206;51.446;6.792;2022-09-03T19:43:24;23.10;1.00
46492;DHT22;32206;51.446;6.792;2022-09-03T19:46:46;23.10;1.00
46492;DHT22;32206;51.446;6.792;2022-09-03T19:52:54;23.10;1.00
46492;DHT22;32206;51.446;6.792;2022-09-03T19:55:44;23.10;1.00
46492;DHT22;32206;51.446;6.792;2022-09-03T19:58:31;23.10;1.00
46492;DHT22;32206;51.446;6.792;2022-09-03T20:01:16;23.10;16.80
46492;DHT22;32206;51.446;6.792;2022-09-03T20:04:13;23.10;11.90
46492;DHT22;32206;51.446;6.792;2022-09-03T20:07:01;23.10;7.40
46492;DHT22;32206;51.446;6.792;2022-09-03T20:09:46;23.10;68.00
46492;DHT22;32206;51.446;6.792;2022-09-03T20:12:34;23.10;98.70
46492;DHT22;32206;51.446;6.792;2022-09-03T20:15:04;23.00;99.90
46492;DHT22;32206;51.446;6.792;2022-09-03T20:22:50;22.90;99.90
46492;DHT22;32206;51.446;6.792;2022-09-03T20:49:30;22.40;1.00
46492;DHT22;32206;51.446;6.792;2022-09-03T20:51:50;22.30;1.00
46492;DHT22;32206;51.446;6.792;2022-09-03T20:56:50;22.00;99.90
46492;DHT22;32206;51.446;6.792;2022-09-03T21:02:10;21.90;99.90
46492;DHT22;32206;51.446;6.792;2022-09-03T21:09:43;21.90;99.90
46492;DHT22;32206;51.446;6.792;2022-09-03T21:12:41;21.90;99.90
46492;DHT22;32206;51.446;6.792;2022-09-03T21:18:15;21.80;96.30
46492;DHT22;32206;51.446;6.792;2022-09-03T21:26:32;21.70;92.20
46492;DHT22;32206;51.446;6.792;2022-09-03T21:29:32;21.70;99.90
46492;DHT22;32206;51.446;6.792;2022-09-03T21:32:24;21.70;74.90
46492;DHT22;32206;51.446;6.792;2022-09-03T21:35:20;21.60;99.90
46492;DHT22;32206;51.446;6.792;2022-09-03T21:38:06;21.60;99.90
46492;DHT22;32206;51.446;6.792;2022-09-03T21:40:35;21.80;99.90
46492;DHT22;32206;51.446;6.792;2022-09-03T21:43:10;21.60;99.90
46492;DHT22;32206;51.446;6.792;2022-09-03T21:45:46;21.60;99.90
46492;DHT22;32206;51.446;6.792;2022-09-03T21:48:39;21.60;99.90
46492;DHT22;32206;51.446;6.792;2022-09-03T21:53:47;21.50;99.90
46492;DHT22;32206;51.446;6.792;2022-09-03T22:04:18;21.40;99.90
46492;DHT22;32206;51.446;6.792;2022-09-03T22:09:43;21.40;99.90
46492;DHT22;32206;51.446;6.792;2022-09-03T22:12:19;21.40;99.90
46492;DHT22;32206;51.446;6.792;2022-09-03T22:14:50;21.30;99.90
46492;DHT22;32206;51.446;6.792;2022-09-03T22:20:15;21.20;1.00
46492;DHT22;32206;51.446;6.792;2022-09-03T22:23:06;21.20;1.00
46492;DHT22;32206;51.446;6.792;2022-09-03T22:33:32;21.10;1.00